createdAt,value
2018-10-02T00:00:54.020Z,15.60
2018-10-02T00:03:26.886Z,15.50
2018-10-02T00:06:00.218Z,15.50
2018-10-02T00:08:33.600Z,15.40
2018-10-02T00:11:10.969Z,15.40
2018-10-02T00:13:48.371Z,15.50
2018-10-02T00:16:21.062Z,15.50
2018-10-02T00:18:53.966Z,15.40
2018-10-02T00:21:27.032Z,15.30
2018-10-02T00:24:00.295Z,15.20
2018-10-02T00:26:33.332Z,15.20
2018-10-02T00:29:06.464Z,15.20
2018-10-02T00:31:39.586Z,15.30
2018-10-02T00:34:13.427Z,15.50
2018-10-02T00:36:47.613Z,15.40
2018-10-02T00:39:20.634Z,15.30
2018-10-02T00:41:53.795Z,15.10
2018-10-02T00:44:26.792Z,15.10
2018-10-02T00:46:59.916Z,15.10
2018-10-02T00:49:33.169Z,15.00
2018-10-02T00:52:06.089Z,14.90
2018-10-02T00:54:39.217Z,14.90
2018-10-02T00:57:12.517Z,14.80
2018-10-02T00:59:45.631Z,14.80
2018-10-02T01:02:18.780Z,14.80
2018-10-02T01:04:51.876Z,14.90
2018-10-02T01:07:25.262Z,14.90
2018-10-02T01:09:58.672Z,14.80
2018-10-02T01:12:31.350Z,14.80
2018-10-02T01:15:04.598Z,14.80
2018-10-02T01:17:37.507Z,14.80
2018-10-02T01:20:11.835Z,14.80
2018-10-02T01:22:44.771Z,14.80
2018-10-02T01:25:17.764Z,14.90
2018-10-02T01:27:50.674Z,14.90
2018-10-02T01:30:29.565Z,14.80
2018-10-02T01:33:02.459Z,14.80
2018-10-02T01:35:35.369Z,14.80
2018-10-02T01:38:08.805Z,14.80
2018-10-02T01:40:41.712Z,14.80
2018-10-02T01:43:14.828Z,14.70
2018-10-02T01:45:47.699Z,14.70
2018-10-02T01:48:20.724Z,14.70
2018-10-02T01:50:53.743Z,14.70
2018-10-02T01:53:26.891Z,14.70
2018-10-02T01:56:00.350Z,14.70
2018-10-02T01:58:33.333Z,14.70
2018-10-02T02:01:06.475Z,14.70
2018-10-02T02:03:39.695Z,14.70
2018-10-02T02:06:12.792Z,14.70
2018-10-02T02:08:46.248Z,14.70
2018-10-02T02:11:19.298Z,14.70
2018-10-02T02:13:53.480Z,14.70
2018-10-02T02:16:29.706Z,14.70
2018-10-02T02:19:04.314Z,14.70
2018-10-02T02:21:37.260Z,14.70
2018-10-02T02:24:10.321Z,14.60
2018-10-02T02:26:43.259Z,14.60
2018-10-02T02:29:16.321Z,14.60
2018-10-02T02:31:49.512Z,14.60
2018-10-02T02:34:22.712Z,14.60
2018-10-02T02:36:56.415Z,14.60
2018-10-02T02:39:29.752Z,14.60
2018-10-02T02:42:02.895Z,14.50
2018-10-02T02:44:36.107Z,14.50
2018-10-02T02:47:13.524Z,14.40
2018-10-02T02:49:50.784Z,14.40
2018-10-02T02:52:25.853Z,14.40
2018-10-02T02:54:58.987Z,14.30
2018-10-02T02:57:32.218Z,14.30
2018-10-02T03:00:05.507Z,14.30
2018-10-02T03:02:38.616Z,14.30
2018-10-02T03:05:11.738Z,14.20
2018-10-02T03:07:44.424Z,14.20
2018-10-02T03:10:17.344Z,14.20
2018-10-02T03:12:50.424Z,14.20
2018-10-02T03:15:23.260Z,14.20
2018-10-02T03:17:56.376Z,14.10
2018-10-02T03:20:29.405Z,14.10
2018-10-02T03:23:03.533Z,14.10
2018-10-02T03:25:36.564Z,14.10
2018-10-02T03:28:09.580Z,14.00
2018-10-02T03:30:42.680Z,14.00
2018-10-02T03:33:15.700Z,14.00
2018-10-02T03:35:49.283Z,14.00
2018-10-02T03:38:22.167Z,14.00
2018-10-02T03:40:55.352Z,14.00
2018-10-02T03:43:28.712Z,14.00
2018-10-02T03:46:02.185Z,14.00
2018-10-02T03:48:35.282Z,14.00
2018-10-02T03:51:08.456Z,14.00
2018-10-02T03:53:41.382Z,14.10
2018-10-02T03:56:14.376Z,14.10
2018-10-02T03:58:47.343Z,14.10
2018-10-02T04:01:20.679Z,14.10
2018-10-02T04:03:53.786Z,14.00
2018-10-02T04:06:26.845Z,14.00
2018-10-02T04:08:59.715Z,14.00
2018-10-02T04:11:32.855Z,14.00
2018-10-02T04:14:06.175Z,13.90
2018-10-02T04:16:39.413Z,14.00
2018-10-02T04:19:12.549Z,13.90
2018-10-02T04:21:45.550Z,13.90
2018-10-02T04:24:19.039Z,13.90
2018-10-02T04:26:52.032Z,13.90
2018-10-02T04:29:25.326Z,13.90
2018-10-02T04:31:58.459Z,13.80
2018-10-02T04:34:31.487Z,13.80
2018-10-02T04:37:10.435Z,13.90
2018-10-02T04:39:48.625Z,13.80
2018-10-02T04:42:22.841Z,13.90
2018-10-02T04:45:01.569Z,13.90
2018-10-02T04:47:40.681Z,13.90
2018-10-02T04:50:22.164Z,13.90
2018-10-02T04:52:55.739Z,13.80
2018-10-02T04:55:29.325Z,13.80
2018-10-02T04:58:02.899Z,13.80
2018-10-02T05:00:36.349Z,13.80
2018-10-02T05:03:10.119Z,13.80
2018-10-02T05:05:43.481Z,13.80
2018-10-02T05:08:27.227Z,13.80
2018-10-02T05:11:11.368Z,13.80
2018-10-02T05:13:52.049Z,13.80
2018-10-02T05:16:32.080Z,13.70
2018-10-02T05:19:05.631Z,13.70
2018-10-02T05:21:38.550Z,13.70
2018-10-02T05:24:12.932Z,13.70
2018-10-02T05:26:46.328Z,13.70
2018-10-02T05:29:20.271Z,13.70
2018-10-02T05:31:53.607Z,13.70
2018-10-02T05:34:29.594Z,13.70
2018-10-02T05:37:05.956Z,13.70
2018-10-02T05:39:40.465Z,13.80
2018-10-02T05:42:15.644Z,13.90
2018-10-02T05:44:49.162Z,13.70
2018-10-02T05:47:23.324Z,13.70
2018-10-02T05:50:04.697Z,13.70
2018-10-02T05:52:39.157Z,13.70
2018-10-02T05:55:12.915Z,13.70
2018-10-02T05:57:46.572Z,13.70
2018-10-02T06:00:20.816Z,13.70
2018-10-02T06:02:54.313Z,13.70
2018-10-02T06:05:27.459Z,13.60
2018-10-02T06:08:00.910Z,13.60
2018-10-02T06:10:33.998Z,13.60
2018-10-02T06:13:07.096Z,13.70
2018-10-02T06:15:40.906Z,13.70
2018-10-02T06:18:13.920Z,13.60
2018-10-02T06:20:46.827Z,13.60
2018-10-02T06:23:19.938Z,13.70
2018-10-02T06:25:53.109Z,13.70
2018-10-02T06:28:27.304Z,13.70
2018-10-02T06:31:00.727Z,13.70
2018-10-02T06:33:33.680Z,13.70
2018-10-02T06:36:06.884Z,13.70
2018-10-02T06:38:39.970Z,13.70
2018-10-02T06:41:13.051Z,13.80
2018-10-02T06:43:46.226Z,13.80
2018-10-02T06:46:20.329Z,13.80
2018-10-02T06:48:54.351Z,13.80
2018-10-02T06:51:29.092Z,13.90
2018-10-02T06:54:01.981Z,13.80
2018-10-02T06:56:35.149Z,13.90
2018-10-02T06:59:08.514Z,13.80
2018-10-02T07:01:41.546Z,13.80
2018-10-02T07:04:14.633Z,13.80
2018-10-02T07:06:47.959Z,13.80
2018-10-02T07:09:21.241Z,13.80
2018-10-02T07:11:54.415Z,13.80
2018-10-02T07:14:28.022Z,13.80
2018-10-02T07:17:02.344Z,13.80
2018-10-02T07:19:35.740Z,13.80
2018-10-02T07:22:09.212Z,13.80
2018-10-02T07:24:43.451Z,13.80
2018-10-02T07:27:16.621Z,13.80
2018-10-02T07:29:51.342Z,13.70
2018-10-02T07:32:24.338Z,13.80
2018-10-02T07:34:57.586Z,13.70
2018-10-02T07:37:30.658Z,13.70
2018-10-02T07:40:04.756Z,13.70
2018-10-02T07:42:38.065Z,13.70
2018-10-02T14:36:23.586Z,12.40
2018-10-02T14:38:58.873Z,12.30
2018-10-02T14:41:33.504Z,12.30
2018-10-02T14:44:07.463Z,12.30
2018-10-02T14:46:41.651Z,12.30
2018-10-02T14:49:15.580Z,12.30
2018-10-02T14:51:48.772Z,12.30
2018-10-02T14:54:23.303Z,12.40
2018-10-02T14:56:56.432Z,12.40
2018-10-02T14:59:29.635Z,12.50
2018-10-02T15:02:03.050Z,12.50
2018-10-02T15:04:36.659Z,12.50
2018-10-02T15:07:10.497Z,12.60
2018-10-02T15:09:44.094Z,12.60
2018-10-02T15:12:17.775Z,12.60
2018-10-02T15:14:51.316Z,12.60
2018-10-02T15:17:25.266Z,12.60
2018-10-02T15:20:00.054Z,12.50
2018-10-02T15:22:33.281Z,12.50
2018-10-02T15:25:06.301Z,12.50
2018-10-02T15:27:39.756Z,12.50
2018-10-02T15:30:12.979Z,12.60
2018-10-02T15:32:46.003Z,12.50
2018-10-02T15:35:19.603Z,12.60
2018-10-02T15:37:53.089Z,12.70
2018-10-02T15:40:27.643Z,12.70
2018-10-02T15:43:00.358Z,12.60
2018-10-02T15:45:33.909Z,12.70
2018-10-02T15:48:10.753Z,12.70
2018-10-02T15:50:44.086Z,12.70
2018-10-02T15:53:18.066Z,12.70
2018-10-02T15:55:51.082Z,12.80
2018-10-02T15:58:24.458Z,12.90
2018-10-02T16:01:00.056Z,12.90
2018-10-02T16:03:35.377Z,13.10
2018-10-02T16:06:08.646Z,13.10
2018-10-02T16:08:41.888Z,13.10
2018-10-02T16:11:15.049Z,13.10
2018-10-02T16:13:48.355Z,13.10
2018-10-02T16:16:21.724Z,13.10
2018-10-02T16:18:55.113Z,13.00
2018-10-02T16:21:28.930Z,12.90
2018-10-02T16:24:04.308Z,12.80
2018-10-02T16:26:38.263Z,12.80
2018-10-02T16:29:12.935Z,12.80
2018-10-02T16:31:46.652Z,12.80
2018-10-02T16:34:21.016Z,12.80
2018-10-02T16:36:54.593Z,12.80
2018-10-02T16:39:27.877Z,13.00
2018-10-02T16:42:01.606Z,13.10
2018-10-02T16:44:41.048Z,13.10
2018-10-02T16:47:14.700Z,13.00
2018-10-02T16:49:48.260Z,12.90
2018-10-02T16:52:24.577Z,12.90
2018-10-02T16:54:59.170Z,12.70
2018-10-02T16:57:32.506Z,12.70
2018-10-02T17:00:06.414Z,12.80
2018-10-02T17:02:39.734Z,12.90
2018-10-02T17:05:13.210Z,13.10
2018-10-02T17:07:47.220Z,13.10
2018-10-02T17:10:21.136Z,13.20
2018-10-02T17:12:54.184Z,13.20
2018-10-02T17:15:27.765Z,13.30
2018-10-02T17:18:02.501Z,13.40
2018-10-02T17:20:35.935Z,13.50
2018-10-02T17:23:10.421Z,13.60
2018-10-02T17:25:47.565Z,13.70
2018-10-02T17:28:20.976Z,13.80
2018-10-02T17:30:54.843Z,13.90
2018-10-02T17:33:28.090Z,14.00
2018-10-02T17:36:01.368Z,14.20
2018-10-02T17:38:34.803Z,14.30
2018-10-02T17:41:08.224Z,14.40
2018-10-02T17:43:41.334Z,14.20
2018-10-02T17:46:15.257Z,14.20
2018-10-02T17:48:49.423Z,14.20
2018-10-02T17:51:22.693Z,14.30
2018-10-02T17:53:56.275Z,14.30
2018-10-02T17:56:29.862Z,14.30
2018-10-02T17:59:03.170Z,14.20
2018-10-02T18:01:36.877Z,14.20
2018-10-02T18:04:10.639Z,14.20
2018-10-02T18:06:43.724Z,14.30
2018-10-02T18:09:16.697Z,14.30
2018-10-02T18:11:49.723Z,14.10
2018-10-02T18:14:23.209Z,13.90
2018-10-02T18:16:56.523Z,13.80
2018-10-02T18:19:29.877Z,13.60
2018-10-02T18:22:03.009Z,13.40
2018-10-02T18:24:37.102Z,13.40
2018-10-02T18:27:10.421Z,13.40
2018-10-02T18:29:43.297Z,13.40
2018-10-02T18:32:17.449Z,13.50
2018-10-02T18:34:50.633Z,13.50
2018-10-02T18:37:24.714Z,13.50
2018-10-02T18:40:00.061Z,13.50
2018-10-02T18:42:33.328Z,13.60
2018-10-02T18:45:07.274Z,13.70
2018-10-02T18:47:40.772Z,13.70
2018-10-02T18:50:13.955Z,13.80
2018-10-02T18:52:47.542Z,14.00
2018-10-02T18:55:21.004Z,14.00
2018-10-02T18:57:53.988Z,14.00
2018-10-02T19:00:28.223Z,14.30
2018-10-02T19:03:01.693Z,14.40
2018-10-02T19:05:37.203Z,14.40
2018-10-02T19:08:13.831Z,14.60
2018-10-02T19:10:48.108Z,14.60
2018-10-02T19:13:22.488Z,14.60
2018-10-02T19:15:59.384Z,14.70
2018-10-02T19:18:32.740Z,14.70
2018-10-02T19:21:05.712Z,14.70
2018-10-02T19:23:38.796Z,14.70
2018-10-02T19:26:28.745Z,14.70
2018-10-02T19:29:03.260Z,14.70
2018-10-02T19:31:40.527Z,14.70
2018-10-02T19:34:14.319Z,14.80
2018-10-02T19:36:48.320Z,14.70
2018-10-02T19:39:23.339Z,14.50
2018-10-02T19:41:58.771Z,14.50
2018-10-02T19:44:32.288Z,14.50
2018-10-02T19:47:06.797Z,14.30
2018-10-02T19:49:40.192Z,14.30
2018-10-02T19:52:15.718Z,14.30
2018-10-02T19:54:50.277Z,14.30
2018-10-02T19:57:24.237Z,14.40
2018-10-02T19:59:57.679Z,14.60
2018-10-02T20:02:31.153Z,14.70
2018-10-02T20:05:04.349Z,14.70
2018-10-02T20:07:38.193Z,14.70
2018-10-02T20:10:14.189Z,14.60
2018-10-02T20:12:47.275Z,14.50
2018-10-02T20:15:21.098Z,14.30
2018-10-02T20:17:55.405Z,14.20
2018-10-02T20:20:36.101Z,14.20
2018-10-02T20:23:10.614Z,14.10
2018-10-02T20:25:44.806Z,14.10
2018-10-02T20:28:19.074Z,14.10
2018-10-02T20:30:52.507Z,14.00
2018-10-02T20:33:25.868Z,14.20
2018-10-02T20:35:58.901Z,14.30
2018-10-02T20:38:31.945Z,14.60
2018-10-02T20:41:07.298Z,14.70
2018-10-02T20:43:41.365Z,14.70
2018-10-02T20:46:17.738Z,14.70
2018-10-02T20:48:53.111Z,14.70
2018-10-02T20:51:27.513Z,14.70
2018-10-02T20:54:01.603Z,14.90
2018-10-02T20:56:38.474Z,15.10
2018-10-02T20:59:16.409Z,15.10
2018-10-02T21:01:50.017Z,15.50
2018-10-02T21:04:23.508Z,15.60
2018-10-02T21:06:57.173Z,15.60
2018-10-02T21:09:30.654Z,15.20
2018-10-02T21:12:03.521Z,15.20
2018-10-02T21:14:37.364Z,15.00
2018-10-02T21:17:10.720Z,14.90
2018-10-02T21:19:43.868Z,15.50
2018-10-02T21:22:18.152Z,15.70
2018-10-02T21:24:52.258Z,15.60
2018-10-02T21:27:27.654Z,15.30
2018-10-02T21:30:01.068Z,15.20
2018-10-02T21:32:34.595Z,15.10
2018-10-02T21:35:07.778Z,15.10
2018-10-02T21:37:41.216Z,15.40
2018-10-02T21:40:14.681Z,15.60
2018-10-02T21:42:47.949Z,15.70
2018-10-02T21:45:22.085Z,16.00
2018-10-02T21:47:56.783Z,16.00
2018-10-02T21:50:31.169Z,15.90
2018-10-02T21:53:05.847Z,15.90
2018-10-02T21:55:39.739Z,16.00
2018-10-02T21:58:13.063Z,16.10
2018-10-02T22:00:46.245Z,16.10
2018-10-02T22:03:19.426Z,16.10
2018-10-02T22:05:53.616Z,16.40
2018-10-02T22:08:26.723Z,16.50
2018-10-02T22:11:00.975Z,16.40
2018-10-02T22:13:35.432Z,16.60
2018-10-02T22:16:09.655Z,16.90
2018-10-02T22:18:43.080Z,16.30
2018-10-02T22:21:17.531Z,16.30
2018-10-02T22:23:51.971Z,16.80
2018-10-02T22:26:26.120Z,17.20
2018-10-02T22:28:59.391Z,17.60
2018-10-02T22:31:32.886Z,17.70
2018-10-02T22:34:06.091Z,17.80
2018-10-02T22:36:39.734Z,17.50
2018-10-02T22:39:13.571Z,17.10
2018-10-02T22:41:47.010Z,16.90
2018-10-02T22:44:20.275Z,16.10
2018-10-02T22:46:53.358Z,15.30
2018-10-02T22:49:26.562Z,14.80
2018-10-02T22:51:59.710Z,14.50
2018-10-02T22:54:33.101Z,14.10
2018-10-02T22:57:06.339Z,14.00
2018-10-02T22:59:40.617Z,14.00
2018-10-02T23:02:14.316Z,13.90
2018-10-02T23:04:47.741Z,13.70
2018-10-02T23:07:27.369Z,13.80
2018-10-02T23:10:00.625Z,13.80
2018-10-02T23:12:33.812Z,13.60
2018-10-02T23:15:10.259Z,13.40
2018-10-02T23:17:43.460Z,13.40
2018-10-02T23:20:19.105Z,13.20
2018-10-02T23:22:52.564Z,13.10
2018-10-02T23:25:26.345Z,12.90
2018-10-02T23:27:59.893Z,12.70
2018-10-02T23:30:33.184Z,12.60
2018-10-02T23:33:06.783Z,12.60
2018-10-02T23:35:40.294Z,12.60
2018-10-02T23:38:13.423Z,12.50
2018-10-02T23:40:46.788Z,12.50
2018-10-02T23:43:19.978Z,12.40
2018-10-02T23:45:56.109Z,12.30
2018-10-02T23:48:40.627Z,12.30
2018-10-02T23:51:14.068Z,12.10
2018-10-02T23:53:47.325Z,12.10
2018-10-02T23:56:20.657Z,12.00
2018-10-02T23:58:55.826Z,11.90
